sensor_id;sensor_type;location;lat;lon;timestamp;temperature;humidity
49441;DHT22;35317;51.978;6.296;2023-03-14T00:04:16;12.30;99.90
49441;DHT22;35317;51.978;6.296;2023-03-14T00:09:17;12.40;99.90
49441;DHT22;35317;51.978;6.296;2023-03-14T00:14:18;12.40;99.90
49441;DHT22;35317;51.978;6.296;2023-03-14T00:19:19;12.40;99.90
49441;DHT22;35317;51.978;6.296;2023-03-14T00:24:19;12.30;99.90
49441;DHT22;35317;51.978;6.296;2023-03-14T00:29:20;12.30;99.90
49441;DHT22;35317;51.978;6.296;2023-03-14T00:34:21;12.30;99.90
49441;DHT22;35317;51.978;6.296;2023-03-14T00:39:22;12.40;99.90
49441;DHT22;35317;51.978;6.296;2023-03-14T00:44:22;12.30;99.90
49441;DHT22;35317;51.978;6.296;2023-03-14T00:49:23;12.30;99.90
49441;DHT22;35317;51.978;6.296;2023-03-14T00:54:24;12.20;99.90
49441;DHT22;35317;51.978;6.296;2023-03-14T00:59:25;12.10;99.90
49441;DHT22;35317;51.978;6.296;2023-03-14T01:04:26;11.90;99.90
49441;DHT22;35317;51.978;6.296;2023-03-14T01:09:26;11.90;99.90
49441;DHT22;35317;51.978;6.296;2023-03-14T01:14:27;11.80;99.90
49441;DHT22;35317;51.978;6.296;2023-03-14T01:19:28;11.80;99.90
49441;DHT22;35317;51.978;6.296;2023-03-14T01:24:29;11.90;99.90
49441;DHT22;35317;51.978;6.296;2023-03-14T01:29:30;11.90;99.90
49441;DHT22;35317;51.978;6.296;2023-03-14T01:34:31;11.90;99.90
49441;DHT22;35317;51.978;6.296;2023-03-14T01:39:32;11.90;99.90
49441;DHT22;35317;51.978;6.296;2023-03-14T01:44:49;11.90;99.90
49441;DHT22;35317;51.978;6.296;2023-03-14T01:49:59;11.90;99.90
49441;DHT22;35317;51.978;6.296;2023-03-14T01:55:12;11.80;99.90
49441;DHT22;35317;51.978;6.296;2023-03-14T02:00:20;11.80;99.90
49441;DHT22;35317;51.978;6.296;2023-03-14T02:05:31;11.70;99.90
49441;DHT22;35317;51.978;6.296;2023-03-14T02:10:38;11.60;99.90
49441;DHT22;35317;51.978;6.296;2023-03-14T02:15:42;11.60;99.90
49441;DHT22;35317;51.978;6.296;2023-03-14T02:20:53;11.50;99.90
49441;DHT22;35317;51.978;6.296;2023-03-14T02:26:10;11.50;99.60
49441;DHT22;35317;51.978;6.296;2023-03-14T02:31:15;11.50;99.50
49441;DHT22;35317;51.978;6.296;2023-03-14T02:36:16;11.50;99.40
49441;DHT22;35317;51.978;6.296;2023-03-14T02:41:18;11.50;99.40
49441;DHT22;35317;51.978;6.296;2023-03-14T02:46:20;11.40;99.80
49441;DHT22;35317;51.978;6.296;2023-03-14T02:51:22;11.40;99.90
49441;DHT22;35317;51.978;6.296;2023-03-14T02:56:24;11.30;99.90
49441;DHT22;35317;51.978;6.296;2023-03-14T03:01:25;11.20;99.90
49441;DHT22;35317;51.978;6.296;2023-03-14T03:06:26;11.10;99.90
49441;DHT22;35317;51.978;6.296;2023-03-14T03:11:26;11.00;99.90
49441;DHT22;35317;51.978;6.296;2023-03-14T03:16:27;10.90;99.90
49441;DHT22;35317;51.978;6.296;2023-03-14T03:21:28;10.90;99.90
49441;DHT22;35317;51.978;6.296;2023-03-14T03:26:29;10.80;99.90
49441;DHT22;35317;51.978;6.296;2023-03-14T03:31:29;10.80;99.90
49441;DHT22;35317;51.978;6.296;2023-03-14T03:36:30;10.80;99.90
49441;DHT22;35317;51.978;6.296;2023-03-14T03:41:32;10.70;99.90
49441;DHT22;35317;51.978;6.296;2023-03-14T03:46:33;10.70;99.90
49441;DHT22;35317;51.978;6.296;2023-03-14T03:51:33;10.70;99.90
49441;DHT22;35317;51.978;6.296;2023-03-14T03:56:34;10.70;99.90
49441;DHT22;35317;51.978;6.296;2023-03-14T04:01:35;10.70;99.90
49441;DHT22;35317;51.978;6.296;2023-03-14T04:06:37;10.60;99.90
49441;DHT22;35317;51.978;6.296;2023-03-14T04:11:37;10.60;99.90
49441;DHT22;35317;51.978;6.296;2023-03-14T04:16:38;10.60;99.90
49441;DHT22;35317;51.978;6.296;2023-03-14T04:21:39;10.70;99.90
49441;DHT22;35317;51.978;6.296;2023-03-14T04:26:47;10.70;99.90
49441;DHT22;35317;51.978;6.296;2023-03-14T04:31:48;10.80;99.90
49441;DHT22;35317;51.978;6.296;2023-03-14T04:36:48;10.80;99.90
49441;DHT22;35317;51.978;6.296;2023-03-14T04:41:49;10.80;99.90
49441;DHT22;35317;51.978;6.296;2023-03-14T04:46:50;10.90;99.90
49441;DHT22;35317;51.978;6.296;2023-03-14T04:51:51;10.90;99.90
49441;DHT22;35317;51.978;6.296;2023-03-14T04:56:53;10.90;99.90
49441;DHT22;35317;51.978;6.296;2023-03-14T05:01:54;10.90;99.90
49441;DHT22;35317;51.978;6.296;2023-03-14T05:06:54;10.90;99.90
49441;DHT22;35317;51.978;6.296;2023-03-14T05:11:55;10.80;99.90
49441;DHT22;35317;51.978;6.296;2023-03-14T05:16:56;10.80;99.90
49441;DHT22;35317;51.978;6.296;2023-03-14T05:21:57;10.80;99.90
49441;DHT22;35317;51.978;6.296;2023-03-14T05:26:57;10.90;99.90
49441;DHT22;35317;51.978;6.296;2023-03-14T05:31:58;10.90;99.90
49441;DHT22;35317;51.978;6.296;2023-03-14T05:36:59;10.80;99.90
49441;DHT22;35317;51.978;6.296;2023-03-14T05:42:00;10.80;99.90
49441;DHT22;35317;51.978;6.296;2023-03-14T05:47:00;10.70;99.90
49441;DHT22;35317;51.978;6.296;2023-03-14T05:52:04;10.50;99.90
49441;DHT22;35317;51.978;6.296;2023-03-14T05:57:05;10.40;99.90
49441;DHT22;35317;51.978;6.296;2023-03-14T06:02:06;10.30;99.90
49441;DHT22;35317;51.978;6.296;2023-03-14T06:07:07;10.30;99.90
49441;DHT22;35317;51.978;6.296;2023-03-14T06:12:08;10.20;99.90
49441;DHT22;35317;51.978;6.296;2023-03-14T06:17:09;10.20;99.90
49441;DHT22;35317;51.978;6.296;2023-03-14T06:22:09;10.20;99.90
49441;DHT22;35317;51.978;6.296;2023-03-14T06:27:10;10.30;99.90
49441;DHT22;35317;51.978;6.296;2023-03-14T06:32:11;10.40;99.90
49441;DHT22;35317;51.978;6.296;2023-03-14T06:37:12;10.50;99.90
49441;DHT22;35317;51.978;6.296;2023-03-14T06:42:13;10.60;99.90
49441;DHT22;35317;51.978;6.296;2023-03-14T06:47:13;10.80;99.90
49441;DHT22;35317;51.978;6.296;2023-03-14T06:52:14;10.80;99.90
49441;DHT22;35317;51.978;6.296;2023-03-14T06:57:15;10.80;99.90
49441;DHT22;35317;51.978;6.296;2023-03-14T07:02:16;10.80;99.90
49441;DHT22;35317;51.978;6.296;2023-03-14T07:07:16;10.80;99.90
49441;DHT22;35317;51.978;6.296;2023-03-14T07:12:17;10.90;99.90
49441;DHT22;35317;51.978;6.296;2023-03-14T07:17:18;10.90;99.90
49441;DHT22;35317;51.978;6.296;2023-03-14T07:22:19;11.00;99.90
49441;DHT22;35317;51.978;6.296;2023-03-14T07:27:19;11.10;99.90
49441;DHT22;35317;51.978;6.296;2023-03-14T07:32:20;11.10;99.90
49441;DHT22;35317;51.978;6.296;2023-03-14T07:37:21;11.20;99.90
49441;DHT22;35317;51.978;6.296;2023-03-14T07:42:22;11.30;99.90
49441;DHT22;35317;51.978;6.296;2023-03-14T07:47:22;11.30;99.90
49441;DHT22;35317;51.978;6.296;2023-03-14T07:52:23;11.30;99.90
49441;DHT22;35317;51.978;6.296;2023-03-14T07:57:24;11.30;99.90
49441;DHT22;35317;51.978;6.296;2023-03-14T08:02:25;11.30;99.90
49441;DHT22;35317;51.978;6.296;2023-03-14T08:07:26;11.20;99.90
49441;DHT22;35317;51.978;6.296;2023-03-14T08:12:27;11.00;99.90
49441;DHT22;35317;51.978;6.296;2023-03-14T08:17:28;10.80;99.90
49441;DHT22;35317;51.978;6.296;2023-03-14T08:22:28;10.60;99.90
49441;DHT22;35317;51.978;6.296;2023-03-14T08:27:29;10.40;99.90
49441;DHT22;35317;51.978;6.296;2023-03-14T08:32:30;10.10;99.90
49441;DHT22;35317;51.978;6.296;2023-03-14T08:37:32;9.80;99.90
49441;DHT22;35317;51.978;6.296;2023-03-14T08:42:33;9.50;99.90
49441;DHT22;35317;51.978;6.296;2023-03-14T08:47:34;9.20;99.90
49441;DHT22;35317;51.978;6.296;2023-03-14T08:52:35;9.10;99.90
49441;DHT22;35317;51.978;6.296;2023-03-14T08:57:38;9.00;99.90
49441;DHT22;35317;51.978;6.296;2023-03-14T09:02:38;8.90;99.90
49441;DHT22;35317;51.978;6.296;2023-03-14T09:07:40;8.80;99.90
49441;DHT22;35317;51.978;6.296;2023-03-14T09:12:40;8.70;99.90
49441;DHT22;35317;51.978;6.296;2023-03-14T09:17:43;8.50;99.90
49441;DHT22;35317;51.978;6.296;2023-03-14T09:22:44;8.30;99.90
49441;DHT22;35317;51.978;6.296;2023-03-14T09:27:45;8.10;99.90
49441;DHT22;35317;51.978;6.296;2023-03-14T09:32:45;7.90;99.90
49441;DHT22;35317;51.978;6.296;2023-03-14T09:37:46;7.80;99.90
49441;DHT22;35317;51.978;6.296;2023-03-14T09:42:50;7.70;99.90
49441;DHT22;35317;51.978;6.296;2023-03-14T09:47:52;7.70;99.90
49441;DHT22;35317;51.978;6.296;2023-03-14T09:53:03;7.70;99.90
49441;DHT22;35317;51.978;6.296;2023-03-14T09:58:20;7.70;99.90
49441;DHT22;35317;51.978;6.296;2023-03-14T10:03:25;7.80;99.90
49441;DHT22;35317;51.978;6.296;2023-03-14T10:08:28;8.00;99.90
49441;DHT22;35317;51.978;6.296;2023-03-14T10:13:29;8.20;99.90
49441;DHT22;35317;51.978;6.296;2023-03-14T10:18:31;8.30;99.90
49441;DHT22;35317;51.978;6.296;2023-03-14T10:23:35;8.40;99.90
49441;DHT22;35317;51.978;6.296;2023-03-14T10:28:46;8.30;99.90
49441;DHT22;35317;51.978;6.296;2023-03-14T10:34:03;8.40;99.90
49441;DHT22;35317;51.978;6.296;2023-03-14T10:39:26;8.40;99.90
49441;DHT22;35317;51.978;6.296;2023-03-14T10:44:30;8.60;99.90
49441;DHT22;35317;51.978;6.296;2023-03-14T10:49:36;8.70;99.90
49441;DHT22;35317;51.978;6.296;2023-03-14T10:54:37;8.80;99.20
49441;DHT22;35317;51.978;6.296;2023-03-14T10:59:41;9.00;99.10
49441;DHT22;35317;51.978;6.296;2023-03-14T11:10:19;8.90;98.00
49441;DHT22;35317;51.978;6.296;2023-03-14T11:15:51;8.50;97.00
49441;DHT22;35317;51.978;6.296;2023-03-14T11:21:02;8.30;98.40
49441;DHT22;35317;51.978;6.296;2023-03-14T11:26:26;8.50;98.70
49441;DHT22;35317;51.978;6.296;2023-03-14T11:31:33;8.50;98.30
49441;DHT22;35317;51.978;6.296;2023-03-14T11:36:39;8.60;98.60
49441;DHT22;35317;51.978;6.296;2023-03-14T11:41:46;8.60;98.60
49441;DHT22;35317;51.978;6.296;2023-03-14T11:47:37;8.70;98.40
49441;DHT22;35317;51.978;6.296;2023-03-14T11:53:13;8.80;97.80
49441;DHT22;35317;51.978;6.296;2023-03-14T11:58:00;8.30;98.20
49441;DHT22;35317;51.978;6.296;2023-03-14T12:08:44;7.70;99.90
49441;DHT22;35317;51.978;6.296;2023-03-14T12:13:52;7.80;99.90
49441;DHT22;35317;51.978;6.296;2023-03-14T12:18:54;7.80;99.90
49441;DHT22;35317;51.978;6.296;2023-03-14T12:23:56;8.00;99.70
49441;DHT22;35317;51.978;6.296;2023-03-14T12:34:10;8.70;96.40
49441;DHT22;35317;51.978;6.296;2023-03-14T12:45:24;9.10;93.60
49441;DHT22;35317;51.978;6.296;2023-03-14T12:50:33;9.50;90.50
49441;DHT22;35317;51.978;6.296;2023-03-14T12:55:53;9.50;81.00
49441;DHT22;35317;51.978;6.296;2023-03-14T13:01:19;9.50;79.10
49441;DHT22;35317;51.978;6.296;2023-03-14T13:11:55;9.30;76.20
49441;DHT22;35317;51.978;6.296;2023-03-14T13:17:01;9.70;73.90
49441;DHT22;35317;51.978;6.296;2023-03-14T13:22:04;10.10;72.50
49441;DHT22;35317;51.978;6.296;2023-03-14T13:27:21;10.40;68.80
49441;DHT22;35317;51.978;6.296;2023-03-14T13:32:28;10.20;68.20
49441;DHT22;35317;51.978;6.296;2023-03-14T13:37:29;10.40;71.20
49441;DHT22;35317;51.978;6.296;2023-03-14T13:42:30;10.40;68.70
49441;DHT22;35317;51.978;6.296;2023-03-14T13:47:31;10.40;67.10
49441;DHT22;35317;51.978;6.296;2023-03-14T13:52:36;10.40;65.40
49441;DHT22;35317;51.978;6.296;2023-03-14T13:57:49;10.30;64.70
49441;DHT22;35317;51.978;6.296;2023-03-14T14:02:56;10.20;62.20
49441;DHT22;35317;51.978;6.296;2023-03-14T14:07:58;10.20;63.40
49441;DHT22;35317;51.978;6.296;2023-03-14T14:13:02;10.40;63.60
49441;DHT22;35317;51.978;6.296;2023-03-14T14:18:04;10.70;64.40
49441;DHT22;35317;51.978;6.296;2023-03-14T14:23:10;11.00;61.00
49441;DHT22;35317;51.978;6.296;2023-03-14T14:28:35;10.90;57.80
49441;DHT22;35317;51.978;6.296;2023-03-14T14:33:43;10.60;54.80
49441;DHT22;35317;51.978;6.296;2023-03-14T14:39:15;10.20;56.50
49441;DHT22;35317;51.978;6.296;2023-03-14T14:44:46;10.00;57.00
49441;DHT22;35317;51.978;6.296;2023-03-14T14:49:47;10.10;58.60
49441;DHT22;35317;51.978;6.296;2023-03-14T14:54:57;10.30;59.10
49441;DHT22;35317;51.978;6.296;2023-03-14T15:00:06;10.60;58.70
49441;DHT22;35317;51.978;6.296;2023-03-14T15:05:20;10.70;57.90
49441;DHT22;35317;51.978;6.296;2023-03-14T15:10:25;10.70;57.90
49441;DHT22;35317;51.978;6.296;2023-03-14T15:15:26;10.50;56.50
49441;DHT22;35317;51.978;6.296;2023-03-14T15:20:27;10.20;55.90
49441;DHT22;35317;51.978;6.296;2023-03-14T15:25:28;9.70;56.50
49441;DHT22;35317;51.978;6.296;2023-03-14T15:30:28;9.50;58.10
49441;DHT22;35317;51.978;6.296;2023-03-14T15:35:29;9.30;58.70
49441;DHT22;35317;51.978;6.296;2023-03-14T15:40:30;9.10;58.20
49441;DHT22;35317;51.978;6.296;2023-03-14T15:45:31;9.00;58.50
49441;DHT22;35317;51.978;6.296;2023-03-14T15:50:32;8.80;59.10
49441;DHT22;35317;51.978;6.296;2023-03-14T15:55:33;8.80;60.90
49441;DHT22;35317;51.978;6.296;2023-03-14T16:00:33;8.80;61.90
49441;DHT22;35317;51.978;6.296;2023-03-14T16:05:40;8.80;63.00
49441;DHT22;35317;51.978;6.296;2023-03-14T16:10:42;8.60;63.70
49441;DHT22;35317;51.978;6.296;2023-03-14T16:15:52;8.60;63.90
49441;DHT22;35317;51.978;6.296;2023-03-14T16:20:56;8.40;63.70
49441;DHT22;35317;51.978;6.296;2023-03-14T16:25:59;8.20;61.40
49441;DHT22;35317;51.978;6.296;2023-03-14T16:31:05;8.20;62.30
49441;DHT22;35317;51.978;6.296;2023-03-14T16:36:09;8.00;62.20
49441;DHT22;35317;51.978;6.296;2023-03-14T16:41:17;7.90;62.80
49441;DHT22;35317;51.978;6.296;2023-03-14T16:46:20;7.70;63.20
49441;DHT22;35317;51.978;6.296;2023-03-14T16:51:22;7.60;62.70
49441;DHT22;35317;51.978;6.296;2023-03-14T16:56:23;7.50;63.00
49441;DHT22;35317;51.978;6.296;2023-03-14T17:01:24;7.40;63.40
49441;DHT22;35317;51.978;6.296;2023-03-14T17:06:27;7.30;64.30
49441;DHT22;35317;51.978;6.296;2023-03-14T17:11:28;7.20;65.30
49441;DHT22;35317;51.978;6.296;2023-03-14T17:16:31;7.10;66.50
49441;DHT22;35317;51.978;6.296;2023-03-14T17:21:38;7.10;67.50
49441;DHT22;35317;51.978;6.296;2023-03-14T17:26:39;7.00;68.10
49441;DHT22;35317;51.978;6.296;2023-03-14T17:31:41;6.90;68.60
49441;DHT22;35317;51.978;6.296;2023-03-14T17:36:45;6.80;68.90
49441;DHT22;35317;51.978;6.296;2023-03-14T17:41:46;6.80;68.40
49441;DHT22;35317;51.978;6.296;2023-03-14T17:46:48;6.70;68.00
49441;DHT22;35317;51.978;6.296;2023-03-14T17:51:51;6.60;68.40
49441;DHT22;35317;51.978;6.296;2023-03-14T17:56:57;6.60;68.50
49441;DHT22;35317;51.978;6.296;2023-03-14T18:02:08;6.40;68.70
49441;DHT22;35317;51.978;6.296;2023-03-14T18:07:14;6.40;69.50
49441;DHT22;35317;51.978;6.296;2023-03-14T18:12:15;6.40;69.70
49441;DHT22;35317;51.978;6.296;2023-03-14T18:17:16;6.30;70.20
49441;DHT22;35317;51.978;6.296;2023-03-14T18:22:17;6.10;70.80
49441;DHT22;35317;51.978;6.296;2023-03-14T18:27:17;6.10;71.20
49441;DHT22;35317;51.978;6.296;2023-03-14T18:32:18;6.00;71.80
49441;DHT22;35317;51.978;6.296;2023-03-14T18:37:19;6.00;72.40
49441;DHT22;35317;51.978;6.296;2023-03-14T18:42:20;5.90;73.10
49441;DHT22;35317;51.978;6.296;2023-03-14T18:47:20;5.70;73.80
49441;DHT22;35317;51.978;6.296;2023-03-14T18:52:25;5.60;74.60
49441;DHT22;35317;51.978;6.296;2023-03-14T18:57:25;5.50;75.30
49441;DHT22;35317;51.978;6.296;2023-03-14T19:02:26;5.40;76.30
49441;DHT22;35317;51.978;6.296;2023-03-14T19:07:27;5.40;76.90
49441;DHT22;35317;51.978;6.296;2023-03-14T19:12:28;5.40;77.40
49441;DHT22;35317;51.978;6.296;2023-03-14T19:17:29;5.40;77.80
49441;DHT22;35317;51.978;6.296;2023-03-14T19:22:29;5.40;78.10
49441;DHT22;35317;51.978;6.296;2023-03-14T19:27:31;5.30;78.80
49441;DHT22;35317;51.978;6.296;2023-03-14T19:32:32;5.20;79.70
49441;DHT22;35317;51.978;6.296;2023-03-14T19:37:33;5.20;80.40
49441;DHT22;35317;51.978;6.296;2023-03-14T19:42:34;5.30;80.40
49441;DHT22;35317;51.978;6.296;2023-03-14T19:47:36;5.30;80.70
49441;DHT22;35317;51.978;6.296;2023-03-14T19:52:37;5.30;81.10
49441;DHT22;35317;51.978;6.296;2023-03-14T19:57:43;5.20;80.20
49441;DHT22;35317;51.978;6.296;2023-03-14T20:02:45;5.10;80.40
49441;DHT22;35317;51.978;6.296;2023-03-14T20:07:46;5.00;80.50
49441;DHT22;35317;51.978;6.296;2023-03-14T20:12:47;4.80;80.90
49441;DHT22;35317;51.978;6.296;2023-03-14T20:17:49;4.70;81.40
49441;DHT22;35317;51.978;6.296;2023-03-14T20:22:51;4.60;81.80
49441;DHT22;35317;51.978;6.296;2023-03-14T20:27:51;4.50;82.30
49441;DHT22;35317;51.978;6.296;2023-03-14T20:32:52;4.30;82.60
49441;DHT22;35317;51.978;6.296;2023-03-14T20:37:53;4.20;83.00
49441;DHT22;35317;51.978;6.296;2023-03-14T20:42:57;4.00;83.30
49441;DHT22;35317;51.978;6.296;2023-03-14T20:47:58;3.90;84.60
49441;DHT22;35317;51.978;6.296;2023-03-14T20:52:59;3.80;84.80
49441;DHT22;35317;51.978;6.296;2023-03-14T20:58:01;3.70;85.30
49441;DHT22;35317;51.978;6.296;2023-03-14T21:03:02;3.70;85.80
49441;DHT22;35317;51.978;6.296;2023-03-14T21:08:03;3.60;86.40
49441;DHT22;35317;51.978;6.296;2023-03-14T21:13:04;3.60;87.70
49441;DHT22;35317;51.978;6.296;2023-03-14T21:18:05;3.70;88.10
49441;DHT22;35317;51.978;6.296;2023-03-14T21:23:06;3.90;89.00
49441;DHT22;35317;51.978;6.296;2023-03-14T21:28:07;4.10;89.60
49441;DHT22;35317;51.978;6.296;2023-03-14T21:33:09;4.30;89.30
49441;DHT22;35317;51.978;6.296;2023-03-14T21:38:10;4.40;89.80
49441;DHT22;35317;51.978;6.296;2023-03-14T21:43:15;4.50;90.00
49441;DHT22;35317;51.978;6.296;2023-03-14T21:48:20;4.50;90.20
49441;DHT22;35317;51.978;6.296;2023-03-14T21:53:24;4.50;90.40
49441;DHT22;35317;51.978;6.296;2023-03-14T21:58:29;4.50;90.50
49441;DHT22;35317;51.978;6.296;2023-03-14T22:03:30;4.40;90.60
49441;DHT22;35317;51.978;6.296;2023-03-14T22:08:33;4.40;90.80
49441;DHT22;35317;51.978;6.296;2023-03-14T22:13:34;4.40;90.90
49441;DHT22;35317;51.978;6.296;2023-03-14T22:18:35;4.30;91.20
49441;DHT22;35317;51.978;6.296;2023-03-14T22:23:35;4.30;91.90
49441;DHT22;35317;51.978;6.296;2023-03-14T22:28:36;4.30;92.70
49441;DHT22;35317;51.978;6.296;2023-03-14T22:33:37;4.30;93.70
49441;DHT22;35317;51.978;6.296;2023-03-14T22:38:37;4.30;94.60
49441;DHT22;35317;51.978;6.296;2023-03-14T22:43:38;4.30;95.10
49441;DHT22;35317;51.978;6.296;2023-03-14T22:48:39;4.30;95.60
49441;DHT22;35317;51.978;6.296;2023-03-14T22:53:40;4.30;96.00
49441;DHT22;35317;51.978;6.296;2023-03-14T22:58:40;4.30;96.10
49441;DHT22;35317;51.978;6.296;2023-03-14T23:03:41;4.30;96.30
49441;DHT22;35317;51.978;6.296;2023-03-14T23:08:42;4.30;96.80
49441;DHT22;35317;51.978;6.296;2023-03-14T23:13:43;4.30;97.20
49441;DHT22;35317;51.978;6.296;2023-03-14T23:18:44;4.30;97.70
49441;DHT22;35317;51.978;6.296;2023-03-14T23:23:46;4.30;97.80
49441;DHT22;35317;51.978;6.296;2023-03-14T23:28:47;4.30;98.30
49441;DHT22;35317;51.978;6.296;2023-03-14T23:33:49;4.40;98.40
49441;DHT22;35317;51.978;6.296;2023-03-14T23:38:50;4.30;99.20
49441;DHT22;35317;51.978;6.296;2023-03-14T23:43:51;4.30;99.80
49441;DHT22;35317;51.978;6.296;2023-03-14T23:48:52;4.10;99.90
49441;DHT22;35317;51.978;6.296;2023-03-14T23:53:54;3.80;99.90
49441;DHT22;35317;51.978;6.296;2023-03-14T23:58:55;3.40;99.90
